Terminal Aerodrome Forecast
Issued by NWS Wichita, KS

Home | Current Version | Previous Version | Text Only | Print | Product List | Glossary Off
Versions: 1 2 3 4 5 6 7 8 9 10 11 12 13 14 15 16 17 18 19 20 21

000
FTUS43 KICT 281900 AAA
TAFICT
TAF AMD
KICT 281912Z 2819/2918 VRB06KT P6SM SCT070 OVC100
      TEMPO 2819/2821 5SM -TSRA OVC060CB
     FM290100 17008KT P6SM VCTS SCT060CB OVC090
      TEMPO 2901/2905 VRB15G30KT 3SM TSRA OVC050CB
     FM291100 22006KT P6SM VCSH SCT050 BKN080=

USA.gov is the U.S. government's official web portal to all federal, state and local government web resources and services.